createdAt,value
2018-06-23T00:01:07.052Z,11.40
2018-06-23T00:03:37.275Z,11.40
2018-06-23T00:06:07.991Z,11.30
2018-06-23T00:08:37.056Z,11.30
2018-06-23T00:11:06.240Z,11.30
2018-06-23T00:13:35.798Z,11.20
2018-06-23T00:16:05.647Z,11.20
2018-06-23T00:18:34.762Z,11.30
2018-06-23T00:21:03.944Z,11.30
2018-06-23T00:23:33.382Z,11.30
2018-06-23T00:26:08.171Z,11.30
2018-06-23T00:28:37.918Z,11.20
2018-06-23T00:31:07.726Z,11.20
2018-06-23T00:33:36.990Z,11.20
2018-06-23T00:36:06.678Z,11.30
2018-06-23T00:38:36.492Z,11.30
2018-06-23T00:41:05.910Z,11.10
2018-06-23T00:43:35.025Z,11.10
2018-06-23T00:46:04.261Z,11.10
2018-06-23T00:48:33.866Z,11.10
2018-06-23T00:51:02.861Z,11.10
2018-06-23T00:53:32.124Z,11.10
2018-06-23T00:56:01.599Z,11.00
2018-06-23T00:58:38.119Z,11.00
2018-06-23T01:01:07.959Z,11.00
2018-06-23T01:03:37.788Z,10.90
2018-06-23T01:06:06.943Z,10.90
2018-06-23T01:08:36.690Z,10.90
2018-06-23T01:11:05.938Z,10.80
2018-06-23T01:13:37.520Z,10.70
2018-06-23T01:16:07.200Z,10.70
2018-06-23T01:18:36.466Z,10.70
2018-06-23T01:21:05.801Z,10.70
2018-06-23T01:23:35.384Z,10.80
2018-06-23T01:26:04.961Z,10.70
2018-06-23T01:28:34.291Z,10.80
2018-06-23T01:31:03.893Z,10.70
2018-06-23T01:33:32.770Z,10.70
2018-06-23T01:36:02.063Z,10.80
2018-06-23T01:38:31.041Z,10.80
2018-06-23T01:40:59.775Z,10.80
2018-06-23T01:43:28.720Z,10.70
2018-06-23T01:45:57.530Z,10.60
2018-06-23T01:48:26.286Z,10.70
2018-06-23T01:50:54.920Z,10.60
2018-06-23T01:53:23.844Z,10.60
2018-06-23T01:55:52.981Z,10.50
2018-06-23T01:58:21.849Z,10.60
2018-06-23T02:00:50.694Z,10.70
2018-06-23T02:03:20.522Z,10.60
2018-06-23T02:05:49.321Z,10.50
2018-06-23T02:08:18.212Z,10.60
2018-06-23T02:10:47.664Z,10.60
2018-06-23T02:13:16.639Z,10.60
2018-06-23T02:15:57.533Z,10.50
2018-06-23T02:18:31.663Z,10.50
2018-06-23T02:21:05.877Z,10.60
2018-06-23T02:23:39.749Z,10.50
2018-06-23T02:26:14.032Z,10.50
2018-06-23T02:28:48.363Z,10.50
2018-06-23T02:31:22.384Z,10.50
2018-06-23T02:33:56.497Z,10.40
2018-06-23T02:36:25.417Z,10.30
2018-06-23T02:38:53.886Z,10.30
2018-06-23T02:41:26.104Z,10.30
2018-06-23T02:43:55.006Z,10.30
2018-06-23T02:46:24.053Z,10.20
2018-06-23T02:48:52.721Z,10.10
2018-06-23T02:51:21.510Z,10.10
2018-06-23T02:53:50.197Z,10.00
2018-06-23T02:56:19.396Z,9.90
2018-06-23T02:58:48.116Z,10.00
2018-06-23T03:01:16.819Z,9.90
2018-06-23T03:03:45.610Z,9.80
2018-06-23T03:06:14.159Z,9.80
2018-06-23T03:08:42.832Z,9.80
2018-06-23T03:11:11.422Z,9.80
2018-06-23T03:13:39.896Z,9.80
2018-06-23T03:16:08.993Z,9.70
2018-06-23T03:21:06.358Z,9.60
2018-06-23T03:23:35.041Z,9.50
2018-06-23T03:26:03.581Z,9.50
2018-06-23T03:28:32.100Z,9.40
2018-06-23T03:31:00.575Z,9.40
2018-06-23T03:33:29.274Z,9.50
2018-06-23T03:35:57.782Z,9.50
2018-06-23T03:38:26.474Z,9.50
2018-06-23T03:40:57.214Z,9.50
2018-06-23T03:43:25.752Z,9.40
2018-06-23T03:45:54.110Z,9.40
2018-06-23T03:48:22.437Z,9.40
2018-06-23T03:50:50.812Z,9.40
2018-06-23T03:53:19.165Z,9.50
2018-06-23T03:55:47.500Z,9.50
2018-06-23T03:58:16.724Z,9.60
2018-06-23T04:00:50.502Z,9.60
2018-06-23T04:03:18.853Z,9.70
2018-06-23T04:05:48.292Z,9.80
2018-06-23T04:08:17.125Z,9.80
2018-06-23T04:10:45.461Z,9.80
2018-06-23T04:13:13.813Z,9.70
2018-06-23T04:15:42.111Z,9.70
2018-06-23T04:18:10.452Z,9.70
2018-06-23T04:20:38.800Z,9.70
2018-06-23T04:23:07.139Z,9.80
2018-06-23T04:25:35.472Z,9.80
2018-06-23T04:28:03.868Z,9.90
2018-06-23T04:30:32.222Z,10.10
2018-06-23T04:33:00.604Z,9.90
2018-06-23T04:35:28.937Z,10.00
2018-06-23T04:37:57.305Z,10.10
2018-06-23T04:40:25.640Z,10.10
2018-06-23T04:42:53.985Z,10.30
2018-06-23T04:45:22.334Z,10.40
2018-06-23T04:47:50.688Z,10.40
2018-06-23T04:50:19.033Z,10.40
2018-06-23T04:52:47.379Z,10.50
2018-06-23T04:55:15.741Z,10.60
2018-06-23T04:57:44.213Z,10.60
2018-06-23T05:00:12.588Z,10.60
2018-06-23T05:02:40.944Z,10.70
2018-06-23T05:05:09.292Z,10.70
2018-06-23T05:07:37.656Z,10.80
2018-06-23T05:10:06.012Z,10.80
2018-06-23T05:12:34.468Z,10.90
2018-06-23T05:15:02.864Z,10.90
2018-06-23T05:17:31.232Z,10.90
2018-06-23T05:19:59.573Z,10.90
2018-06-23T05:22:28.004Z,10.90
2018-06-23T05:24:56.355Z,10.70
2018-06-23T05:27:24.729Z,10.60
2018-06-23T05:29:53.132Z,10.80
2018-06-23T05:32:21.504Z,10.80
2018-06-23T05:34:49.981Z,10.80
2018-06-23T05:37:18.328Z,10.90
2018-06-23T05:39:46.702Z,11.00
2018-06-23T05:42:15.043Z,11.20
2018-06-23T05:44:43.478Z,11.10
2018-06-23T05:47:11.780Z,11.20
2018-06-23T05:49:40.136Z,11.30
2018-06-23T05:52:08.519Z,11.50
2018-06-23T05:54:36.885Z,11.30
2018-06-23T05:57:05.497Z,11.30
2018-06-23T05:59:33.838Z,11.40
2018-06-23T06:02:02.221Z,11.30
2018-06-23T06:04:30.577Z,11.30
2018-06-23T06:06:58.952Z,11.40
2018-06-23T06:09:27.304Z,11.50
2018-06-23T06:11:55.689Z,11.40
2018-06-23T06:14:24.044Z,11.40
2018-06-23T06:17:26.061Z,11.40
2018-06-23T06:19:55.532Z,11.40
2018-06-23T06:22:25.281Z,11.40
2018-06-23T06:24:53.615Z,11.50
2018-06-23T06:27:21.941Z,11.60
2018-06-23T06:29:50.854Z,11.70
2018-06-23T06:32:19.180Z,11.60
2018-06-23T06:34:47.484Z,11.60
2018-06-23T06:37:15.788Z,11.70
2018-06-23T06:39:44.619Z,11.80
2018-06-23T06:42:13.013Z,11.80
2018-06-23T06:44:41.383Z,11.80
2018-06-23T06:47:10.688Z,11.70
2018-06-23T06:49:39.016Z,11.60
2018-06-23T06:52:07.332Z,11.80
2018-06-23T06:54:35.656Z,11.90
2018-06-23T06:57:03.979Z,11.90
2018-06-23T06:59:32.405Z,11.90
2018-06-23T07:02:00.703Z,11.80
2018-06-23T07:04:29.029Z,11.70
2018-06-23T07:06:57.341Z,11.90
2018-06-23T07:09:25.734Z,12.10
2018-06-23T07:11:54.054Z,12.00
2018-06-23T07:14:22.381Z,11.60
2018-06-23T07:16:50.672Z,11.90
2018-06-23T07:19:19.024Z,11.70
2018-06-23T07:21:47.324Z,11.70
2018-06-23T07:24:15.664Z,11.80
2018-06-23T07:26:43.971Z,11.90
2018-06-23T07:29:12.295Z,12.00
2018-06-23T07:31:40.612Z,12.20
2018-06-23T07:36:37.000Z,12.90
2018-06-23T07:39:07.791Z,12.70
2018-06-23T07:41:36.152Z,12.30
2018-06-23T07:44:10.472Z,12.40
2018-06-23T07:46:38.784Z,12.70
2018-06-23T07:49:07.153Z,13.10
2018-06-23T07:51:35.462Z,12.90
2018-06-23T07:54:03.809Z,12.80
2018-06-23T07:56:32.157Z,12.70
2018-06-23T07:59:00.501Z,12.50
2018-06-23T08:01:28.824Z,12.10
2018-06-23T08:03:57.149Z,11.80
2018-06-23T08:06:25.461Z,11.80
2018-06-23T08:08:53.776Z,11.90
2018-06-23T08:11:22.220Z,11.90
2018-06-23T08:13:50.543Z,11.80
2018-06-23T08:16:18.861Z,11.60
2018-06-23T08:18:47.200Z,11.40
2018-06-23T08:21:15.508Z,11.20
2018-06-23T08:23:43.832Z,10.90
2018-06-23T08:26:12.123Z,10.90
2018-06-23T08:28:40.472Z,10.90
2018-06-23T08:31:08.771Z,10.90
2018-06-23T08:33:37.180Z,10.70
2018-06-23T08:36:05.499Z,10.70
2018-06-23T08:38:33.823Z,10.60
2018-06-23T08:41:02.130Z,10.70
2018-06-23T08:43:30.456Z,10.90
2018-06-23T08:45:58.760Z,11.10
2018-06-23T08:48:27.079Z,11.10
2018-06-23T08:50:55.388Z,11.00
2018-06-23T08:53:23.708Z,11.00
2018-06-23T08:55:52.029Z,11.00
2018-06-23T08:58:20.324Z,10.90
2018-06-23T09:00:48.862Z,11.00
2018-06-23T09:03:17.156Z,11.00
2018-06-23T09:05:45.499Z,11.10
2018-06-23T09:08:13.799Z,11.10
2018-06-23T09:10:42.155Z,10.70
2018-06-23T09:13:10.452Z,10.90
2018-06-23T09:15:38.772Z,10.90
2018-06-23T09:18:07.080Z,10.60
2018-06-23T09:23:03.472Z,10.40
2018-06-23T09:25:31.805Z,10.40
2018-06-23T09:28:00.121Z,10.50
2018-06-23T09:30:28.449Z,10.50
2018-06-23T09:32:56.745Z,10.70
2018-06-23T09:35:25.088Z,10.60
2018-06-23T09:37:53.389Z,10.80
2018-06-23T09:40:21.703Z,10.70
2018-06-23T09:42:50.008Z,10.70
2018-06-23T09:45:18.320Z,10.70
2018-06-23T09:47:46.620Z,10.60
2018-06-23T09:50:15.007Z,10.60
2018-06-23T09:52:43.309Z,10.60
2018-06-23T09:55:11.635Z,10.80
2018-06-23T09:57:39.928Z,10.80
2018-06-23T10:00:08.260Z,10.80
2018-06-23T10:02:36.560Z,10.70
2018-06-23T10:05:05.013Z,10.70
2018-06-23T10:07:33.309Z,10.70
2018-06-23T10:10:01.630Z,10.80
2018-06-23T10:12:30.585Z,10.90
2018-06-23T10:14:58.901Z,10.90
2018-06-23T10:17:27.200Z,11.00
2018-06-23T10:19:55.515Z,10.90
2018-06-23T10:22:23.812Z,10.90
2018-06-23T10:24:52.144Z,10.80
2018-06-23T10:27:20.606Z,10.70
2018-06-23T10:29:48.896Z,10.70
2018-06-23T10:32:17.201Z,10.80
2018-06-23T10:34:45.520Z,11.00
2018-06-23T10:37:13.817Z,11.00
2018-06-23T10:39:42.128Z,11.00
2018-06-23T10:42:10.452Z,10.90
2018-06-23T10:44:38.772Z,11.00
2018-06-23T10:47:07.068Z,10.80
2018-06-23T10:49:35.388Z,10.90
2018-06-23T10:52:03.692Z,10.90
2018-06-23T10:54:32.004Z,10.90
2018-06-23T10:57:01.165Z,11.00
2018-06-23T10:59:29.484Z,11.00
2018-06-23T11:01:57.777Z,11.00
2018-06-23T11:04:26.120Z,11.00
2018-06-23T11:06:54.420Z,11.00
2018-06-23T11:09:22.716Z,11.00
2018-06-23T11:11:51.055Z,11.00
2018-06-23T11:14:19.372Z,11.00
2018-06-23T11:16:47.684Z,11.10
2018-06-23T11:19:15.976Z,11.10
2018-06-23T11:21:44.318Z,11.10
2018-06-23T11:24:12.685Z,11.00
2018-06-23T11:26:40.973Z,11.00
2018-06-23T11:29:09.264Z,10.90
2018-06-23T11:34:05.640Z,11.00
2018-06-23T11:36:33.952Z,11.00
2018-06-23T11:39:02.260Z,11.10
2018-06-23T11:41:30.583Z,11.20
2018-06-23T11:43:58.884Z,11.10
2018-06-23T11:46:27.243Z,11.20
2018-06-23T11:48:55.532Z,11.30
2018-06-23T11:51:23.852Z,11.30
2018-06-23T11:53:52.144Z,11.40
2018-06-23T11:56:20.500Z,11.40
2018-06-23T11:58:48.800Z,11.50
2018-06-23T12:01:17.157Z,11.70
2018-06-23T12:03:45.760Z,11.90
2018-06-23T12:06:14.080Z,12.10
2018-06-23T12:08:42.384Z,12.30
2018-06-23T12:11:10.727Z,12.40
2018-06-23T12:13:39.027Z,12.40
2018-06-23T12:16:07.376Z,12.40
2018-06-23T12:18:35.680Z,12.20
2018-06-23T12:21:04.004Z,12.20
2018-06-23T12:23:32.315Z,12.00
2018-06-23T12:26:00.681Z,12.10
2018-06-23T12:28:29.299Z,12.00
2018-06-23T12:30:57.659Z,12.10
2018-06-23T12:33:25.964Z,12.10
2018-06-23T12:35:54.300Z,12.10
2018-06-23T12:38:22.783Z,12.00
2018-06-23T12:40:51.152Z,12.00
2018-06-23T12:43:19.456Z,11.90
2018-06-23T12:45:47.782Z,12.00
2018-06-23T12:48:16.089Z,12.20
2018-06-23T12:50:44.416Z,12.20
2018-06-23T12:53:12.728Z,12.30
2018-06-23T12:55:41.080Z,12.30
2018-06-23T12:58:09.392Z,12.40
2018-06-23T13:00:37.708Z,12.40
2018-06-23T13:03:06.012Z,12.40
2018-06-23T13:05:34.347Z,12.20
2018-06-23T13:08:02.656Z,12.30
2018-06-23T13:10:31.005Z,12.60
2018-06-23T13:12:59.307Z,12.70
2018-06-23T13:15:27.640Z,12.70
2018-06-23T13:20:23.996Z,12.60
2018-06-23T13:22:52.460Z,12.40
2018-06-23T13:25:20.764Z,12.50
2018-06-23T13:27:49.152Z,12.40
2018-06-23T13:30:17.457Z,12.40
2018-06-23T13:32:45.784Z,12.70
2018-06-23T13:35:14.252Z,12.80
2018-06-23T13:37:42.764Z,12.80
2018-06-23T13:40:11.076Z,12.80
2018-06-23T13:42:39.392Z,13.00
2018-06-23T13:45:07.716Z,13.00
2018-06-23T13:47:36.034Z,13.10
2018-06-23T13:50:04.375Z,13.00
2018-06-23T13:52:32.909Z,12.70
2018-06-23T13:55:01.250Z,12.60
2018-06-23T13:57:29.596Z,12.60
2018-06-23T13:59:57.918Z,12.60
2018-06-23T14:02:26.241Z,12.60
2018-06-23T14:04:54.540Z,12.50
2018-06-23T14:07:22.865Z,12.50
2018-06-23T14:09:51.164Z,12.50
2018-06-23T14:12:19.500Z,12.60
2018-06-23T14:14:48.673Z,12.60
2018-06-23T14:17:16.959Z,12.60
2018-06-23T14:19:45.262Z,12.70
2018-06-23T14:22:13.592Z,12.70
2018-06-23T14:24:41.905Z,12.80
2018-06-23T14:27:10.244Z,12.90
2018-06-23T14:29:38.555Z,13.00
2018-06-23T14:34:34.977Z,13.30
2018-06-23T14:37:03.545Z,13.30
2018-06-23T14:39:31.844Z,13.30
2018-06-23T14:42:00.221Z,13.20
2018-06-23T14:44:28.529Z,13.10
2018-06-23T14:46:56.862Z,13.10
2018-06-23T14:49:25.168Z,13.00
2018-06-23T14:51:53.532Z,13.00
2018-06-23T14:54:21.832Z,12.90
2018-06-23T14:56:50.170Z,12.80
2018-06-23T14:59:18.484Z,12.70
2018-06-23T15:01:46.820Z,12.60
2018-06-23T15:04:15.122Z,12.60
2018-06-23T15:06:43.444Z,12.70
2018-06-23T15:09:23.368Z,12.70
2018-06-23T15:12:03.216Z,12.70
2018-06-23T15:14:31.520Z,12.70
2018-06-23T15:16:59.835Z,12.80
2018-06-23T15:19:28.132Z,12.80
2018-06-23T15:21:56.453Z,12.80
2018-06-23T15:24:24.757Z,12.80
2018-06-23T15:26:53.109Z,12.80
2018-06-23T15:29:21.457Z,12.70
2018-06-23T15:31:49.813Z,12.70
2018-06-23T15:34:18.124Z,12.60
2018-06-23T15:36:46.453Z,12.50
2018-06-23T15:39:14.754Z,12.00
2018-06-23T15:41:43.077Z,11.60
2018-06-23T15:44:11.376Z,11.50
2018-06-23T15:46:39.707Z,11.40
2018-06-23T15:49:08.010Z,11.40
2018-06-23T15:51:36.308Z,11.30
2018-06-23T15:54:04.968Z,11.20
2018-06-23T15:56:33.268Z,11.30
2018-06-23T15:59:01.589Z,11.30
2018-06-23T16:01:29.892Z,11.30
2018-06-23T16:03:58.212Z,11.40
2018-06-23T16:06:26.513Z,11.50
2018-06-23T16:08:54.913Z,11.60
2018-06-23T16:11:23.208Z,11.70
2018-06-23T16:13:51.528Z,11.80
2018-06-23T16:16:19.850Z,11.90
2018-06-23T16:18:48.185Z,11.90
2018-06-23T16:21:16.568Z,11.90
2018-06-23T16:23:44.897Z,11.90
2018-06-23T16:26:13.211Z,11.90
2018-06-23T16:28:41.534Z,12.00
2018-06-23T16:31:09.840Z,12.00
2018-06-23T16:33:38.169Z,12.00
2018-06-23T16:36:06.561Z,12.10
2018-06-23T16:38:34.940Z,12.20
2018-06-23T16:41:03.247Z,12.00
2018-06-23T16:43:31.568Z,12.00
2018-06-23T16:45:59.859Z,12.00
2018-06-23T16:48:28.200Z,12.00
2018-06-23T16:50:56.541Z,12.00
2018-06-23T16:53:24.864Z,11.90
2018-06-23T16:55:53.160Z,11.90
2018-06-23T16:58:21.480Z,11.90
2018-06-23T17:00:49.781Z,11.90
2018-06-23T17:03:18.103Z,11.90
2018-06-23T17:05:46.413Z,11.80
2018-06-23T17:08:14.732Z,11.90
2018-06-23T17:10:43.156Z,12.00
2018-06-23T17:13:11.472Z,12.00
2018-06-23T17:15:39.780Z,12.00
2018-06-23T17:18:08.213Z,12.00
2018-06-23T17:20:36.605Z,11.90
2018-06-23T17:23:04.924Z,12.00
2018-06-23T17:25:33.234Z,12.00
2018-06-23T17:28:01.654Z,12.00
2018-06-23T17:30:29.996Z,11.90
2018-06-23T17:32:58.321Z,11.90
2018-06-23T17:35:26.628Z,11.90
2018-06-23T17:37:54.971Z,11.90
2018-06-23T17:40:23.271Z,11.90
2018-06-23T17:42:51.588Z,12.00
2018-06-23T17:45:19.933Z,12.00
2018-06-23T17:47:50.524Z,12.00
2018-06-23T17:50:18.829Z,12.00
2018-06-23T17:52:47.946Z,12.00
2018-06-23T17:55:16.257Z,12.00
2018-06-23T17:57:44.750Z,12.00
2018-06-23T18:00:12.928Z,12.10
2018-06-23T18:02:41.368Z,11.90
2018-06-23T18:05:09.688Z,12.00
2018-06-23T18:07:38.000Z,12.00
2018-06-23T18:10:06.335Z,12.00
2018-06-23T18:12:34.729Z,12.00
2018-06-23T18:15:03.069Z,12.00
2018-06-23T18:17:31.709Z,12.00
2018-06-23T18:20:00.205Z,12.00
2018-06-23T18:22:28.524Z,12.00
2018-06-23T18:24:56.852Z,11.90
2018-06-23T18:27:25.181Z,11.90
2018-06-23T18:29:53.857Z,11.90
2018-06-23T18:32:22.164Z,11.90
2018-06-23T18:34:50.583Z,12.00
2018-06-23T18:37:18.892Z,12.10
2018-06-23T18:39:47.281Z,12.00
2018-06-23T18:42:15.589Z,12.00
2018-06-23T18:44:43.908Z,12.00
2018-06-23T18:47:12.209Z,11.90
2018-06-23T18:49:40.524Z,11.90
2018-06-23T18:52:08.824Z,11.90
2018-06-23T18:54:37.148Z,11.90
2018-06-23T18:57:05.473Z,11.90
2018-06-23T18:59:33.824Z,12.00
2018-06-23T19:04:30.213Z,11.80
2018-06-23T19:06:58.625Z,11.80
2018-06-23T19:09:27.160Z,11.80
2018-06-23T19:11:55.326Z,11.70
2018-06-23T19:14:23.648Z,11.70
2018-06-23T19:16:51.944Z,11.60
2018-06-23T19:19:20.265Z,11.50
2018-06-23T19:21:48.581Z,11.50
2018-06-23T19:24:16.913Z,11.60
2018-06-23T19:26:45.207Z,11.40
2018-06-23T19:29:13.524Z,11.20
2018-06-23T19:31:41.823Z,11.10
2018-06-23T19:34:10.149Z,11.10
2018-06-23T19:36:38.465Z,11.10
2018-06-23T19:41:35.825Z,10.90
2018-06-23T19:44:04.160Z,10.90
2018-06-23T19:46:32.775Z,10.90
2018-06-23T19:49:01.265Z,10.90
2018-06-23T19:51:29.564Z,10.90
2018-06-23T19:53:59.378Z,11.00
2018-06-23T19:56:27.660Z,11.00
2018-06-23T19:58:56.000Z,11.00
2018-06-23T20:01:24.300Z,11.00
2018-06-23T20:03:52.616Z,11.00
2018-06-23T20:08:50.188Z,11.10
2018-06-23T20:11:18.516Z,11.10
2018-06-23T20:13:46.848Z,11.10
2018-06-23T20:16:15.148Z,11.10
2018-06-23T20:18:43.914Z,11.10
2018-06-23T20:21:12.939Z,11.10
2018-06-23T20:23:41.631Z,11.10
2018-06-23T20:26:10.545Z,11.10
2018-06-23T20:28:39.321Z,11.10
2018-06-23T20:31:10.107Z,11.10
2018-06-23T20:33:39.981Z,11.20
2018-06-23T20:36:10.155Z,11.20
2018-06-23T20:38:38.677Z,11.10
2018-06-23T20:41:07.009Z,11.10
2018-06-23T20:43:35.308Z,11.10
2018-06-23T20:46:03.627Z,11.10
2018-06-23T20:48:31.928Z,11.00
2018-06-23T20:51:00.265Z,11.00
2018-06-23T20:53:28.633Z,11.00
2018-06-23T20:55:56.957Z,11.00
2018-06-23T20:58:25.355Z,11.00
2018-06-23T21:00:53.776Z,11.00
2018-06-23T21:03:22.023Z,11.00
2018-06-23T21:05:50.368Z,11.10
2018-06-23T21:08:18.673Z,11.10
2018-06-23T21:10:47.897Z,11.10
2018-06-23T21:13:16.204Z,11.10
2018-06-23T21:15:44.533Z,11.10
2018-06-23T21:18:12.841Z,11.10
2018-06-23T21:20:41.160Z,11.00
2018-06-23T21:23:09.464Z,11.00
2018-06-23T21:25:37.783Z,11.00
2018-06-23T21:28:06.158Z,11.00
2018-06-23T21:30:34.528Z,11.00
2018-06-23T21:33:02.769Z,11.00
2018-06-23T21:35:31.108Z,11.00
2018-06-23T21:37:59.403Z,11.10
2018-06-23T21:40:27.728Z,11.10
2018-06-23T21:42:56.036Z,11.10
2018-06-23T21:45:24.366Z,11.10
2018-06-23T21:47:52.669Z,11.20
2018-06-23T21:50:21.005Z,11.20
2018-06-23T21:52:49.324Z,11.20
2018-06-23T21:55:17.661Z,11.30
2018-06-23T21:57:45.979Z,11.20
2018-06-23T22:00:37.237Z,11.30
2018-06-23T22:03:06.741Z,11.20
2018-06-23T22:05:35.192Z,11.20
2018-06-23T22:08:03.621Z,11.30
2018-06-23T22:10:32.024Z,11.20
2018-06-23T22:13:00.336Z,11.20
2018-06-23T22:15:28.692Z,11.30
2018-06-23T22:17:57.288Z,11.30
2018-06-23T22:20:25.623Z,11.40
2018-06-23T22:22:54.168Z,11.40
2018-06-23T22:25:23.096Z,11.40
2018-06-23T22:27:51.444Z,11.30
2018-06-23T22:30:20.597Z,11.30
2018-06-23T22:32:48.901Z,11.20
2018-06-23T22:35:17.224Z,11.20
2018-06-23T22:37:45.540Z,11.10
2018-06-23T22:40:14.116Z,11.20
2018-06-23T22:42:42.428Z,11.20
2018-06-23T22:45:10.860Z,11.10
2018-06-23T22:47:39.165Z,11.10
2018-06-23T22:50:08.236Z,11.10
2018-06-23T22:52:36.816Z,11.10
2018-06-23T22:55:05.309Z,11.20
2018-06-23T22:57:33.616Z,11.20
2018-06-23T23:00:01.965Z,11.20
2018-06-23T23:02:30.274Z,11.20
2018-06-23T23:04:58.583Z,11.30
2018-06-23T23:07:26.904Z,11.30
2018-06-23T23:09:55.211Z,11.30
2018-06-23T23:12:23.566Z,11.30
2018-06-23T23:14:51.876Z,11.40
2018-06-23T23:17:20.209Z,11.40
2018-06-23T23:19:48.517Z,11.50
2018-06-23T23:22:16.845Z,11.30
2018-06-23T23:24:45.145Z,11.40
2018-06-23T23:27:13.476Z,11.40
2018-06-23T23:29:41.784Z,11.30
2018-06-23T23:32:10.190Z,11.30
2018-06-23T23:34:38.520Z,11.20
2018-06-23T23:37:06.844Z,11.00
2018-06-23T23:39:35.148Z,11.10
2018-06-23T23:42:03.491Z,11.00
2018-06-23T23:44:31.795Z,11.00
2018-06-23T23:47:00.121Z,11.00
2018-06-23T23:49:28.420Z,11.00
2018-06-23T23:51:56.744Z,11.00
2018-06-23T23:54:25.064Z,11.00
2018-06-23T23:59:21.436Z,11.00
